Map

Track Data

SID SEASON NUMBER BASIN SUBBASIN NAME ISO_TIME NATURE LAT LON WMO_WIND WMO_PRES WMO_AGENCY TRACK_TYPE DIST2LAND LANDFALL IFLAG USA_AGENCY USA_ATCF_ID USA_LAT USA_LON USA_RECORD USA_STATUS USA_WIND USA_PRES USA_SSHS USA_R34_NE USA_R34_SE USA_R34_SW USA_R34_NW USA_R50_NE USA_R50_SE USA_R50_SW USA_R50_NW USA_R64_NE USA_R64_SE USA_R64_SW USA_R64_NW USA_POCI USA_ROCI USA_RMW USA_EYE TOKYO_LAT TOKYO_LON TOKYO_GRADE TOKYO_WIND TOKYO_PRES TOKYO_R50_DIR TOKYO_R50_LONG TOKYO_R50_SHORT TOKYO_R30_DIR TOKYO_R30_LONG TOKYO_R30_SHORT TOKYO_LAND CMA_LAT CMA_LON CMA_CAT CMA_WIND CMA_PRES HKO_LAT HKO_LON HKO_CAT HKO_WIND HKO_PRES NEWDELHI_LAT NEWDELHI_LON NEWDELHI_GRADE NEWDELHI_WIND NEWDELHI_PRES NEWDELHI_CI NEWDELHI_DP NEWDELHI_POCI REUNION_LAT REUNION_LON REUNION_TYPE REUNION_WIND REUNION_PRES REUNION_TNUM REUNION_CI REUNION_RMW REUNION_R34_NE REUNION_R34_SE REUNION_R34_SW REUNION_R34_NW REUNION_R50_NE REUNION_R50_SE REUNION_R50_SW REUNION_R50_NW REUNION_R64_NE REUNION_R64_SE REUNION_R64_SW REUNION_R64_NW BOM_LAT BOM_LON BOM_TYPE BOM_WIND BOM_PRES BOM_TNUM BOM_CI BOM_RMW BOM_R34_NE BOM_R34_SE BOM_R34_SW BOM_R34_NW BOM_R50_NE BOM_R50_SE BOM_R50_SW BOM_R50_NW BOM_R64_NE BOM_R64_SE BOM_R64_SW BOM_R64_NW BOM_ROCI BOM_POCI BOM_EYE BOM_POS_METHOD BOM_PRES_METHOD NADI_LAT NADI_LON NADI_CAT NADI_WIND NADI_PRES WELLINGTON_LAT WELLINGTON_LON WELLINGTON_WIND WELLINGTON_PRES DS824_LAT DS824_LON DS824_STAGE DS824_WIND DS824_PRES TD9636_LAT TD9636_LON TD9636_STAGE TD9636_WIND TD9636_PRES TD9635_LAT TD9635_LON TD9635_WIND TD9635_PRES TD9635_ROCI NEUMANN_LAT NEUMANN_LON NEUMANN_CLASS NEUMANN_WIND NEUMANN_PRES MLC_LAT MLC_LON MLC_CLASS MLC_WIND MLC_PRES USA_GUST BOM_GUST BOM_GUST_PER REUNION_GUST REUNION_GUST_PER USA_SEAHGT USA_SEARAD_NE USA_SEARAD_SE USA_SEARAD_SW USA_SEARAD_NW STORM_SPEED STORM_DIR
1989169N16142 1989 47 WP MM ELLIS 1989-06-18 00:00:00 NR 16.0000 142.000 main 1829 1743 O_________O___ jtwc_wp WP061989 16.0000 142.000 15 -1 16.0000 142.000 1 15 16 263
1989169N16142 1989 47 WP MM ELLIS 1989-06-18 03:00:00 NR 15.9050 141.150 main 1743 1647 P_________P___ WP061989 15.8982 141.150 15 -1 15.9118 141.151 1 15 16 263
1989169N16142 1989 47 WP MM ELLIS 1989-06-18 06:00:00 NR 15.8088 140.301 main 1647 1561 O_________P___ jtwc_wp WP061989 15.8000 140.300 15 -1 15.8175 140.302 1 15 16 263
1989169N16142 1989 47 WP MM ELLIS 1989-06-18 09:00:00 NR 15.7108 139.451 main 1561 1464 P_________P___ WP061989 15.7072 139.450 15 -1 15.7145 139.452 1 15 17 263
1989169N16142 1989 47 WP MM ELLIS 1989-06-18 12:00:00 NR 15.6000 138.600 main 1464 1378 O_________O___ jtwc_wp WP061989 15.6000 138.600 15 -1 15.6000 138.600 1 15 17 261
1989169N16142 1989 47 WP MM ELLIS 1989-06-18 15:00:00 NR 15.4614 137.748 main 1368 1279 P_________P___ WP061989 15.4497 137.750 15 -1 15.4732 137.746 1 15 17 260
1989169N16142 1989 47 WP MM ELLIS 1989-06-18 18:00:00 NR 15.3207 136.896 main 1279 1193 O_________P___ jtwc_wp WP061989 15.3000 136.900 15 -1 15.3414 136.892 1 15 17 261
1989169N16142 1989 47 WP MM ELLIS 1989-06-18 21:00:00 NR 15.2030 136.046 main 1183 1097 P_________P___ WP061989 15.1922 136.050 15 -1 15.2139 136.043 1 15 17 262
1989169N16142 1989 47 WP MM ELLIS 1989-06-19 00:00:00 NR 15.1000 135.200 main 1097 1012 O_________O___ jtwc_wp WP061989 15.1000 135.200 15 -1 15.1000 135.200 1 15 17 262
1989169N16142 1989 47 WP MM ELLIS 1989-06-19 03:00:00 NR 14.9851 134.339 main 1001 916 P_________P___ WP061989 14.9923 134.342 17 -1 14.9779 134.335 1 16 17 263
1989169N16142 1989 47 WP MM ELLIS 1989-06-19 06:00:00 NR 14.8874 133.491 main 916 831 O_________P___ jtwc_wp WP061989 14.9000 133.500 20 -1 14.8749 133.482 1 17 16 264
1989169N16142 1989 47 WP MM ELLIS 1989-06-19 09:00:00 NR 14.8221 132.670 main 831 751 P_________P___ WP061989 14.8348 132.678 20 -1 14.8093 132.663 1 18 15 267
1989169N16142 1989 47 WP MM ELLIS 1989-06-19 12:00:00 NR 14.8000 131.900 main 751 681 O_________O___ jtwc_wp WP061989 14.8000 131.900 20 -1 14.8000 131.900 1 20 15 268
1989169N16142 1989 47 WP MM ELLIS 1989-06-19 15:00:00 NR 14.7805 131.160 main 681 614 P_________P___ WP061989 14.7548 131.162 22 -1 14.8061 131.157 1 21 14 272
1989169N16142 1989 47 WP MM ELLIS 1989-06-19 18:00:00 NR 14.8386 130.489 main 614 569 O_________P___ jtwc_wp WP061989 14.8000 130.500 25 -1 14.8772 130.478 1 22 13 280
1989169N16142 1989 47 WP MM ELLIS 1989-06-19 21:00:00 NR 15.0010 129.884 main 569 560 P_________P___ WP061989 14.9675 129.883 25 -1 15.0346 129.885 1 23 9 306
1989169N16142 1989 47 WP MM ELLIS 1989-06-20 00:00:00 TS 15.3900 129.710 1004 tokyo main 578 578 OOO_______O___ jtwc_wp WP061989 15.3000 129.400 25 -1 16.0000 130.900 2 1004 0 0 0 15.5000 131.000 1 29 1002 15.3000 129.400 1 25 9 340
1989169N16142 1989 47 WP MM ELLIS 1989-06-20 03:00:00 TS 15.8697 129.556 main 602 592 PPP_______P___ WP061989 15.8198 129.105 25 -1 16.0125 130.477 2 1004 0 0 16.0302 130.506 1 29 1002 15.7680 129.071 1 25 10 340
1989169N16142 1989 47 WP MM ELLIS 1989-06-20 06:00:00 TS 16.3366 129.354 1004 tokyo main 600 591 OOO_______P___ jtwc_wp WP061989 16.4000 128.900 25 -1 16.1000 130.000 2 1004 0 0 0 16.5000 130.000 1 29 1002 16.3282 128.840 1 25 10 332
1989169N16142 1989 47 WP MM ELLIS 1989-06-20 09:00:00 TS 16.7417 129.067 main 593 576 PPP_______P___ WP061989 16.9323 128.688 25 -1 16.3002 129.455 2 1004 0 0 16.8600 129.485 1 29 1002 16.8744 128.640 1 25 10 319
1989169N16142 1989 47 WP MM ELLIS 1989-06-20 12:00:00 TS 17.0500 128.700 1004 tokyo main 583 557 OOO_______O___ jtwc_wp WP061989 17.3000 128.400 25 -1 16.5000 129.000 2 1004 0 0 0 17.1000 129.000 1 29 1002 17.3000 128.400 1 25 9 302
1989169N16142 1989 47 WP MM ELLIS 1989-06-20 15:00:00 TS 17.1959 128.299 main 557 526 PPP_______P___ WP061989 17.3603 127.915 25 -1 16.5722 128.785 2 1004 0 0 17.2372 128.600 1 29 1002 17.4577 128.016 1 25 8 284
1989169N16142 1989 47 WP MM ELLIS 1989-06-20 18:00:00 TS 17.2530 127.867 1004 tokyo main 533 496 OOO_______P___ jtwc_wp WP061989 17.3000 127.400 25 -1 16.6000 128.700 2 1004 0 0 0 17.3000 128.200 1 29 1002 17.4853 127.586 1 25 9 279
1989169N16142 1989 47 WP MM ELLIS 1989-06-20 21:00:00 TS 17.3364 127.391 main 496 469 PPP_______P___ WP061989 17.3422 127.043 25 -1 16.6448 128.552 2 0 0 17.3951 127.693 1 29 1002 17.4452 127.138 1 25 10 279
1989169N16142 1989 47 WP MM ELLIS 1989-06-21 00:00:00 TS 17.4000 126.867 1004 tokyo main 469 416 OPO_______O___ jtwc_wp WP061989 17.4000 126.700 25 -1 16.6895 128.406 2 0 0 17.4000 127.200 1 29 1002 17.4000 126.700 1 25 9 271
1989169N16142 1989 47 WP MM ELLIS 1989-06-21 03:00:00 TS 17.3574 126.422 main 416 384 PPP_______P___ WP061989 17.4501 126.243 25 -1 16.7388 128.265 2 0 0 17.2075 126.775 1 29 1002 17.4146 126.250 1 25 8 264
1989169N16142 1989 47 WP MM ELLIS 1989-06-21 06:00:00 TS 17.3134 126.041 1002 tokyo main 373 352 OPO_______P___ jtwc_wp WP061989 17.5000 125.800 25 -1 16.7977 128.128 2 0 0 17.0000 126.500 1 29 1002 17.4403 125.823 1 25 6 267
1989169N16142 1989 47 WP MM ELLIS 1989-06-21 09:00:00 TS 17.3211 125.792 main 352 332 PPP_______P___ WP061989 17.5200 125.440 25 -1 16.8712 127.998 2 0 0 16.9474 126.478 1 29 1002 17.4959 125.459 1 25 4 283
1989169N16142 1989 47 WP MM ELLIS 1989-06-21 12:00:00 TS 17.4000 125.633 1002 tokyo main 332 323 OPO_______O___ jtwc_wp WP061989 17.6000 125.200 25 -1 16.9642 127.875 2 0 0 17.0000 126.500 1 29 1002 17.6000 125.200 1 25 4 311
1989169N16142 1989 47 WP MM ELLIS 1989-06-21 15:00:00 TS 17.5778 125.484 main 325 317 PPP_______P___ WP061989 17.8274 125.098 25 -1 17.0815 127.761 2 0 0 17.1276 126.278 1 29 1001 17.7783 125.076 1 25 5 333
1989169N16142 1989 47 WP MM ELLIS 1989-06-21 18:00:00 TS 17.8015 125.419 1000 tokyo main 320 320 OPO_______P___ jtwc_wp WP061989 18.1000 125.100 25 -1 17.2281 127.656 2 0 0 17.3000 126.100 1 29 1000 18.0045 125.057 1 25 4 358
1989169N16142 1989 47 WP MM ELLIS 1989-06-21 21:00:00 TS 17.9961 125.476 main 337 337 PPP_______P___ WP061989 18.3150 125.135 25 -1 17.4090 127.563 2 0 0 17.4200 126.183 1 29 1000 18.2535 125.110 1 25 4 23
1989169N16142 1989 47 WP MM ELLIS 1989-06-22 00:00:00 TS 18.2000 125.600 1000 tokyo main 348 348 OPO_______O___ jtwc_wp WP061989 18.5000 125.200 25 -1 17.6290 127.481 2 0 0 17.6000 126.400 1 29 1000 18.5000 125.200 1 25 5 29
1989169N16142 1989 47 WP MM ELLIS 1989-06-22 03:00:00 TS 18.4110 125.720 main 358 358 PPP_______P___ WP061989 18.6425 125.235 25 -1 17.8932 127.413 2 0 0 17.9201 126.687 1 29 1000 18.6705 125.239 1 25 5 26
1989169N16142 1989 47 WP MM ELLIS 1989-06-22 06:00:00 TS 18.6466 125.837 1000 tokyo main 369 369 OPO_______P___ jtwc_wp WP061989 18.8000 125.300 25 -1 18.2065 127.359 2 0 0 18.3000 126.900 1 29 1000 18.8397 125.311 1 25 5 32
1989169N16142 1989 47 WP MM ELLIS 1989-06-22 09:00:00 TS 18.8645 126.018 main 393 393 PPP_______P___ WP061989 19.0200 125.420 25 -1 18.5737 127.321 2 0 0 18.6349 126.868 1 29 1000 19.0391 125.427 1 25 6 35
1989169N16142 1989 47 WP MM ELLIS 1989-06-22 12:00:00 TS 19.1400 126.207 998 tokyo main 418 418 OOOO______O___ jtwc_wp WP061989 19.3000 125.600 25 -1 19.0000 127.300 2 998 0 0 0 19.0000 126.700 1 29 1000 18.7000 126.900 TD 25 1000 19.3000 125.600 1 25 7 20
1989169N16142 1989 47 WP MM ELLIS 1989-06-22 15:00:00 TS 19.4783 126.247 main 428 428 PPPP______P___ WP061989 19.6125 125.820 27 -1 19.4704 127.296 2 997 0 0 19.4201 126.456 1 29 1000 19.1711 125.999 TD 30 995 19.5507 125.813 1 27 8 7
1989169N16142 1989 47 WP MM ELLIS 1989-06-22 18:00:00 TS 19.8905 126.313 35 996 tokyo main 452 452 OOOO______P___ jtwc_wp WP061989 20.0000 126.100 30 -1 20.0000 127.300 3 35 996 0 9 125 125 0 19.9000 126.300 1 29 1000 19.6000 125.600 TS 35 990 19.8801 126.085 1 30 9 16
1989169N16142 1989 47 WP MM ELLIS 1989-06-22 21:00:00 TS 20.3194 126.503 main 489 489 PPPP______P___ WP061989 20.3874 126.406 32 -1 20.4650 127.249 3 37 994 0 9 125 125 20.3975 126.425 1 33 999 20.0029 126.020 TS 35 990 20.3443 126.414 1 32 12 26
1989169N16142 1989 47 WP MM ELLIS 1989-06-23 00:00:00 TS 20.9789 126.884 40 992 tokyo main 562 562 OOOO______O___ jtwc_wp WP061989 21.0000 126.800 35 0 21.2000 127.300 3 40 992 0 9 125 125 0 21.0000 126.700 2 38 998 20.6000 126.800 TS 35 990 21.0000 126.800 2 35 18 24
1989169N16142 1989 47 WP MM ELLIS 1989-06-23 03:00:00 TS 21.9473 127.290 main 620 606 PPPP______P___ WP061989 22.0103 127.334 35 0 22.4651 127.561 3 40 991 0 9 125 125 21.7098 126.949 2 38 996 21.5821 127.421 TS 35 990 21.7866 127.252 2 35 23 21
1989169N16142 1989 47 WP MM ELLIS 1989-06-23 06:00:00 TS 23.1239 127.749 40 990 tokyo main 610 610 OOOO______P___ jtwc_wp WP061989 23.2000 127.900 35 0 24.0000 128.000 3 40 990 0 9 125 125 0 22.6000 127.300 2 38 994 22.8000 127.900 TS 35 990 22.7764 127.759 2 35 25 21
1989169N16142 1989 47 WP MM ELLIS 1989-06-23 09:00:00 TS 24.3014 128.249 main 630 630 PPP_______P___ WP061989 24.1873 128.353 35 0 25.5003 128.577 3 42 990 0 9 125 125 23.5403 127.779 2 38 994 TS 23.9776 128.285 2 35 27 21
1989169N16142 1989 47 WP MM ELLIS 1989-06-23 12:00:00 TS 25.6750 128.800 45 990 tokyo main 620 431 OOO_______O___ jtwc_wp WP061989 25.4000 128.800 35 0 27.0000 129.200 3 45 990 0 9 125 125 0 24.9000 128.400 2 38 994 25.4000 128.800 2 35 33 18
1989169N16142 1989 47 WP MM ELLIS 1989-06-23 15:00:00 TS 27.4196 129.388 main 421 215 PPP_______P___ WP061989 27.1382 129.363 35 0 28.3699 129.739 3 47 987 0 9 125 125 26.9965 129.224 2 38 993 27.1740 129.224 2 35 38 15
1989169N16142 1989 47 WP MM ELLIS 1989-06-23 18:00:00 TS 29.3337 129.935 50 985 tokyo main 204 9 OOO_______P___ jtwc_wp WP061989 29.1000 129.900 35 0 29.8000 130.200 4 50 985 0 9 125 125 0 29.3000 130.000 2 38 992 29.1350 129.641 2 35 39 12
1989169N16142 1989 47 WP MM ELLIS 1989-06-23 21:00:00 TS 31.2598 130.357 main 0 0 PPP_______P___ WP061989 31.0616 130.267 35 0 31.5409 130.660 4 45 987 0 9 125 125 31.3582 130.414 2 38 992 31.0785 130.087 2 35 37 10
1989169N16142 1989 47 WP MM ELLIS 1989-06-24 00:00:00 TS 32.9500 130.700 40 990 tokyo main 0 0 OOO_______O___ jtwc_wp WP061989 32.8000 130.600 35 0 33.2000 130.900 3 40 990 0 9 125 125 0 33.0000 130.700 2 38 992 32.8000 130.600 2 35 30 11
1989169N16142 1989 47 WP MM ELLIS 1989-06-24 03:00:00 MX 34.1540 131.018 992 tokyo main 0 0 POP_______P___ WP061989 34.0485 130.964 35 0 34.5000 130.800 6 992 0 0 0 33.9196 131.103 2 33 993 34.1478 131.205 2 35 21 20
1989169N16142 1989 47 WP MM ELLIS 1989-06-24 06:00:00 MX 34.9236 131.583 994 tokyo main 28 28 OOO_______P___ jtwc_wp WP061989 35.0000 131.500 35 0 35.0000 131.500 6 994 0 0 0 34.6000 131.500 1 29 994 35.1770 131.888 2 35 20 30
1989169N16142 1989 47 WP MM ELLIS 1989-06-24 09:00:00 MX 35.8445 132.203 main 57 57 PPP_______P___ WP061989 35.8654 132.349 35 0 35.9322 132.271 6 995 0 0 35.6723 131.850 1 29 995 35.9929 132.627 2 35 21 27
1989169N16142 1989 47 WP MM ELLIS 1989-06-24 12:00:00 MX 36.8200 132.760 996 tokyo main 145 145 OOO_______O___ jtwc_wp WP061989 36.7000 133.400 35 0 37.0000 133.000 6 996 0 0 0 36.7000 132.200 1 29 996 36.7000 133.400 2 35 19 21
1989169N16142 1989 47 WP MM ELLIS 1989-06-24 15:00:00 MX 37.5906 133.060 main 233 233 _PP___________ WP061989 -1 37.8245 133.576 6 996 0 0 37.3567 132.544 1 29 997 2 15 22
1989169N16142 1989 47 WP MM ELLIS 1989-06-24 18:00:00 ET 38.2500 133.500 996 tokyo main 305 294 _OO___________ -1 38.5000 134.000 6 996 0 0 0 38.0000 133.000 9 29 998 2 16 28
1989169N16142 1989 47 WP MM ELLIS 1989-06-24 21:00:00 ET 38.9928 134.010 main 302 301 _PP___________ -1 38.9996 134.290 6 996 0 0 38.9860 133.731 9 29 998 2 17 27
1989169N16142 1989 47 WP MM ELLIS 1989-06-25 00:00:00 ET 39.7500 134.500 996 tokyo main 333 274 _OO___________ -1 39.5000 134.500 6 996 0 0 0 40.0000 134.500 9 29 998 17 24
1989169N16142 1989 47 WP MM ELLIS 1989-06-25 03:00:00 ET 40.5370 134.891 main 274 216 _PP___________ -1 40.2496 134.713 6 997 0 0 40.8244 135.069 9 29 998 16 21
1989169N16142 1989 47 WP MM ELLIS 1989-06-25 06:00:00 ET 41.2500 135.250 998 tokyo main 211 187 _OO___________ -1 41.0000 135.000 6 998 0 0 0 41.5000 135.500 9 29 998 14 25
1989169N16142 1989 47 WP MM ELLIS 1989-06-25 09:00:00 ET 41.7684 135.637 main 183 161 _PP___________ -1 41.4996 135.428 6 999 0 0 42.0372 135.847 9 29 999 12 31
1989169N16142 1989 47 WP MM ELLIS 1989-06-25 12:00:00 ET 42.2500 136.050 1000 tokyo main 156 137 _OO___________ -1 42.0000 136.000 6 1000 0 0 0 42.5000 136.100 9 29 1000 12 31
1989169N16142 1989 47 WP MM ELLIS 1989-06-25 15:00:00 ET 42.8382 136.508 main 137 123 _PP___________ -1 42.6888 136.707 6 1000 0 0 42.9877 136.309 9 26 1001 14 29
1989169N16142 1989 47 WP MM ELLIS 1989-06-25 18:00:00 ET 43.5000 137.000 1000 tokyo main 125 _OO___________ -1 43.5000 137.500 6 1000 0 0 0 43.5000 136.500 9 23 1002 15 28

Digital Typhoon Data and Search

About IBTrACS Database

This database is a web-friendly format of International Best Track Archive for Climate Stewardship (IBTrACS), a global best track data archive curated by NOAA dating back to 1842.

Updated: 2021-12-03